Wilton, Minnesota
Current Conditions -  °F | °C
As of 11:53 PM on Monday 26 Jan 2015 (Local Time) from KBJI Reporting Station
Overcast Overcast  
Wind Chill: 20°   Ceiling: 800
Heat Index: 27°   Visibility: 10mi
Dew Point: 24°   Wind: 6mph
Humidity: 90%   Direction: 310°NW
Pressure: 29.99"   Gusts: NA
Location:  47.5°N, 95°W
Report Text: KBJI 270553Z AUTO 31005KT 10SM OVC008 M03/M04 A2999 RMK AO2 T10281042
Loading
Personal Weather Stations






























Interactive Weather Map New forecast layout! Learn more

10-Day Weather Forecast

Advertisements
Track Severe Weather on mobile